sensor_id;sensor_type;location;lat;lon;timestamp;temperature;humidity
25302;DHT22;13243;50.888;4.724;2023-02-15T00:02:54;4.40;99.90
25302;DHT22;13243;50.888;4.724;2023-02-15T00:07:56;4.40;99.90
25302;DHT22;13243;50.888;4.724;2023-02-15T00:13:02;4.30;99.90
25302;DHT22;13243;50.888;4.724;2023-02-15T00:18:03;4.10;99.90
25302;DHT22;13243;50.888;4.724;2023-02-15T00:23:05;4.00;99.90
25302;DHT22;13243;50.888;4.724;2023-02-15T00:28:07;4.00;99.90
25302;DHT22;13243;50.888;4.724;2023-02-15T00:33:09;3.90;99.90
25302;DHT22;13243;50.888;4.724;2023-02-15T00:38:11;3.80;99.90
25302;DHT22;13243;50.888;4.724;2023-02-15T00:43:14;3.80;99.90
25302;DHT22;13243;50.888;4.724;2023-02-15T00:48:16;3.80;99.90
25302;DHT22;13243;50.888;4.724;2023-02-15T00:53:18;3.60;99.90
25302;DHT22;13243;50.888;4.724;2023-02-15T00:58:20;3.40;99.90
25302;DHT22;13243;50.888;4.724;2023-02-15T01:03:22;3.50;99.90
25302;DHT22;13243;50.888;4.724;2023-02-15T01:08:24;3.40;99.90
25302;DHT22;13243;50.888;4.724;2023-02-15T01:13:26;3.40;99.90
25302;DHT22;13243;50.888;4.724;2023-02-15T01:18:28;3.50;99.90
25302;DHT22;13243;50.888;4.724;2023-02-15T01:23:29;3.30;99.90
25302;DHT22;13243;50.888;4.724;2023-02-15T01:28:32;3.30;99.90
25302;DHT22;13243;50.888;4.724;2023-02-15T01:33:35;3.30;99.90
25302;DHT22;13243;50.888;4.724;2023-02-15T01:38:37;3.30;99.90
25302;DHT22;13243;50.888;4.724;2023-02-15T01:43:43;3.10;99.90
25302;DHT22;13243;50.888;4.724;2023-02-15T01:48:48;3.00;99.90
25302;DHT22;13243;50.888;4.724;2023-02-15T01:53:56;2.90;99.90
25302;DHT22;13243;50.888;4.724;2023-02-15T01:59:02;2.90;99.90
25302;DHT22;13243;50.888;4.724;2023-02-15T02:04:12;3.10;99.90
25302;DHT22;13243;50.888;4.724;2023-02-15T02:09:15;2.90;99.90
25302;DHT22;13243;50.888;4.724;2023-02-15T02:14:17;2.90;99.90
25302;DHT22;13243;50.888;4.724;2023-02-15T02:30:34;2.80;99.90
25302;DHT22;13243;50.888;4.724;2023-02-15T02:35:48;2.90;99.90
25302;DHT22;13243;50.888;4.724;2023-02-15T02:41:07;2.70;99.90
25302;DHT22;13243;50.888;4.724;2023-02-15T02:46:24;2.70;99.90
25302;DHT22;13243;50.888;4.724;2023-02-15T02:51:27;2.70;99.90
25302;DHT22;13243;50.888;4.724;2023-02-15T02:56:40;2.60;99.90
25302;DHT22;13243;50.888;4.724;2023-02-15T03:01:55;2.80;99.90
25302;DHT22;13243;50.888;4.724;2023-02-15T03:07:02;2.70;99.90
25302;DHT22;13243;50.888;4.724;2023-02-15T03:12:04;2.70;99.90
25302;DHT22;13243;50.888;4.724;2023-02-15T03:17:07;2.70;99.90
25302;DHT22;13243;50.888;4.724;2023-02-15T03:22:17;2.70;99.90
25302;DHT22;13243;50.888;4.724;2023-02-15T03:27:26;2.50;99.90
25302;DHT22;13243;50.888;4.724;2023-02-15T03:32:30;2.40;99.90
25302;DHT22;13243;50.888;4.724;2023-02-15T03:37:36;2.30;99.90
25302;DHT22;13243;50.888;4.724;2023-02-15T03:42:39;2.40;99.90
25302;DHT22;13243;50.888;4.724;2023-02-15T03:47:47;2.50;99.90
25302;DHT22;13243;50.888;4.724;2023-02-15T03:52:52;2.50;99.90
25302;DHT22;13243;50.888;4.724;2023-02-15T03:57:54;2.40;99.90
25302;DHT22;13243;50.888;4.724;2023-02-15T04:08:36;2.20;99.90
25302;DHT22;13243;50.888;4.724;2023-02-15T04:14:03;2.30;99.90
25302;DHT22;13243;50.888;4.724;2023-02-15T04:19:25;2.00;99.90
25302;DHT22;13243;50.888;4.724;2023-02-15T04:24:46;2.10;99.90
25302;DHT22;13243;50.888;4.724;2023-02-15T04:30:07;2.10;99.90
25302;DHT22;13243;50.888;4.724;2023-02-15T04:35:09;2.20;99.90
25302;DHT22;13243;50.888;4.724;2023-02-15T04:40:14;2.00;99.90
25302;DHT22;13243;50.888;4.724;2023-02-15T04:45:19;2.20;99.90
25302;DHT22;13243;50.888;4.724;2023-02-15T04:50:21;2.30;99.90
25302;DHT22;13243;50.888;4.724;2023-02-15T04:55:23;2.40;99.90
25302;DHT22;13243;50.888;4.724;2023-02-15T05:00:25;2.20;99.90
25302;DHT22;13243;50.888;4.724;2023-02-15T05:05:27;2.10;99.90
25302;DHT22;13243;50.888;4.724;2023-02-15T05:10:28;2.10;99.90
25302;DHT22;13243;50.888;4.724;2023-02-15T05:15:30;2.10;99.90
25302;DHT22;13243;50.888;4.724;2023-02-15T05:20:33;2.10;99.90
25302;DHT22;13243;50.888;4.724;2023-02-15T05:25:34;2.10;99.90
25302;DHT22;13243;50.888;4.724;2023-02-15T05:36:10;1.90;99.90
25302;DHT22;13243;50.888;4.724;2023-02-15T05:41:12;1.90;99.90
25302;DHT22;13243;50.888;4.724;2023-02-15T05:46:14;1.80;99.90
25302;DHT22;13243;50.888;4.724;2023-02-15T05:51:16;1.80;99.90
25302;DHT22;13243;50.888;4.724;2023-02-15T05:56:18;1.80;99.90
25302;DHT22;13243;50.888;4.724;2023-02-15T06:01:20;1.80;99.90
25302;DHT22;13243;50.888;4.724;2023-02-15T06:06:24;1.90;99.90
25302;DHT22;13243;50.888;4.724;2023-02-15T06:11:26;1.70;99.90
25302;DHT22;13243;50.888;4.724;2023-02-15T06:16:27;1.80;99.90
25302;DHT22;13243;50.888;4.724;2023-02-15T06:21:30;1.70;99.90
25302;DHT22;13243;50.888;4.724;2023-02-15T06:26:32;1.60;99.90
25302;DHT22;13243;50.888;4.724;2023-02-15T06:31:34;1.70;99.90
25302;DHT22;13243;50.888;4.724;2023-02-15T06:36:36;1.60;99.90
25302;DHT22;13243;50.888;4.724;2023-02-15T06:41:39;1.60;99.90
25302;DHT22;13243;50.888;4.724;2023-02-15T06:46:40;1.30;99.90
25302;DHT22;13243;50.888;4.724;2023-02-15T06:51:42;1.40;99.90
25302;DHT22;13243;50.888;4.724;2023-02-15T06:56:44;1.30;99.90
25302;DHT22;13243;50.888;4.724;2023-02-15T07:01:46;1.30;99.90
25302;DHT22;13243;50.888;4.724;2023-02-15T07:06:48;1.20;99.90
25302;DHT22;13243;50.888;4.724;2023-02-15T07:11:49;1.30;99.90
25302;DHT22;13243;50.888;4.724;2023-02-15T07:17:10;1.40;99.90
25302;DHT22;13243;50.888;4.724;2023-02-15T07:22:32;1.50;99.90
25302;DHT22;13243;50.888;4.724;2023-02-15T07:27:35;1.70;99.90
25302;DHT22;13243;50.888;4.724;2023-02-15T07:32:37;1.70;99.90
25302;DHT22;13243;50.888;4.724;2023-02-15T07:38:00;1.90;99.90
25302;DHT22;13243;50.888;4.724;2023-02-15T07:43:02;2.20;99.90
25302;DHT22;13243;50.888;4.724;2023-02-15T07:48:05;2.50;99.90
25302;DHT22;13243;50.888;4.724;2023-02-15T07:53:07;2.40;99.90
25302;DHT22;13243;50.888;4.724;2023-02-15T07:58:08;2.40;99.90
25302;DHT22;13243;50.888;4.724;2023-02-15T08:03:10;2.70;99.90
25302;DHT22;13243;50.888;4.724;2023-02-15T08:08:15;2.90;99.90
25302;DHT22;13243;50.888;4.724;2023-02-15T08:13:32;3.10;99.90
25302;DHT22;13243;50.888;4.724;2023-02-15T08:18:34;3.30;99.90
25302;DHT22;13243;50.888;4.724;2023-02-15T08:23:36;3.50;99.90
25302;DHT22;13243;50.888;4.724;2023-02-15T08:28:38;3.70;99.90
25302;DHT22;13243;50.888;4.724;2023-02-15T08:33:42;4.00;99.90
25302;DHT22;13243;50.888;4.724;2023-02-15T08:38:44;4.30;99.90
25302;DHT22;13243;50.888;4.724;2023-02-15T08:43:49;4.60;99.90
25302;DHT22;13243;50.888;4.724;2023-02-15T08:48:52;4.80;99.90
25302;DHT22;13243;50.888;4.724;2023-02-15T08:53:56;5.00;99.90
25302;DHT22;13243;50.888;4.724;2023-02-15T08:58:59;5.30;99.90
25302;DHT22;13243;50.888;4.724;2023-02-15T09:04:03;5.50;99.90
25302;DHT22;13243;50.888;4.724;2023-02-15T09:09:07;5.60;99.90
25302;DHT22;13243;50.888;4.724;2023-02-15T09:14:12;5.70;99.90
25302;DHT22;13243;50.888;4.724;2023-02-15T09:19:18;5.90;99.90
25302;DHT22;13243;50.888;4.724;2023-02-15T09:24:20;6.00;99.90
25302;DHT22;13243;50.888;4.724;2023-02-15T09:29:22;6.10;99.90
25302;DHT22;13243;50.888;4.724;2023-02-15T09:34:24;6.30;99.90
25302;DHT22;13243;50.888;4.724;2023-02-15T09:39:26;6.50;99.90
25302;DHT22;13243;50.888;4.724;2023-02-15T09:45:02;6.70;99.90
25302;DHT22;13243;50.888;4.724;2023-02-15T10:06:35;7.30;99.90
25302;DHT22;13243;50.888;4.724;2023-02-15T10:12:06;7.50;99.90
25302;DHT22;13243;50.888;4.724;2023-02-15T10:17:36;7.70;99.90
25302;DHT22;13243;50.888;4.724;2023-02-15T10:22:54;7.80;99.90
25302;DHT22;13243;50.888;4.724;2023-02-15T10:28:05;8.10;99.90
25302;DHT22;13243;50.888;4.724;2023-02-15T10:33:39;8.20;99.90
25302;DHT22;13243;50.888;4.724;2023-02-15T10:38:57;8.40;99.90
25302;DHT22;13243;50.888;4.724;2023-02-15T10:54:33;9.40;99.90
25302;DHT22;13243;50.888;4.724;2023-02-15T10:59:50;9.50;99.90
25302;DHT22;13243;50.888;4.724;2023-02-15T11:16:19;10.40;99.90
25302;DHT22;13243;50.888;4.724;2023-02-15T11:21:34;10.40;99.90
25302;DHT22;13243;50.888;4.724;2023-02-15T11:26:41;10.50;99.90
25302;DHT22;13243;50.888;4.724;2023-02-15T11:31:49;10.80;99.90
25302;DHT22;13243;50.888;4.724;2023-02-15T11:36:55;10.80;99.90
25302;DHT22;13243;50.888;4.724;2023-02-15T11:42:11;11.10;99.90
25302;DHT22;13243;50.888;4.724;2023-02-15T11:47:14;11.00;99.90
25302;DHT22;13243;50.888;4.724;2023-02-15T11:52:17;11.00;99.90
25302;DHT22;13243;50.888;4.724;2023-02-15T11:57:39;11.00;99.90
25302;DHT22;13243;50.888;4.724;2023-02-15T12:02:46;11.10;99.90
25302;DHT22;13243;50.888;4.724;2023-02-15T12:08:00;11.20;99.90
25302;DHT22;13243;50.888;4.724;2023-02-15T12:23:39;11.50;99.90
25302;DHT22;13243;50.888;4.724;2023-02-15T12:28:44;11.70;99.90
25302;DHT22;13243;50.888;4.724;2023-02-15T12:33:56;11.60;99.90
25302;DHT22;13243;50.888;4.724;2023-02-15T12:44:20;11.60;99.90
25302;DHT22;13243;50.888;4.724;2023-02-15T12:49:25;11.80;99.90
25302;DHT22;13243;50.888;4.724;2023-02-15T12:59:57;11.90;99.90
25302;DHT22;13243;50.888;4.724;2023-02-15T13:05:51;12.20;99.90
25302;DHT22;13243;50.888;4.724;2023-02-15T13:10:33;12.40;99.90
25302;DHT22;13243;50.888;4.724;2023-02-15T13:15:40;12.40;99.90
25302;DHT22;13243;50.888;4.724;2023-02-15T13:20:43;12.80;99.90
25302;DHT22;13243;50.888;4.724;2023-02-15T13:25:47;13.00;99.90
25302;DHT22;13243;50.888;4.724;2023-02-15T13:30:51;13.10;99.90
25302;DHT22;13243;50.888;4.724;2023-02-15T13:36:09;13.50;99.90
25302;DHT22;13243;50.888;4.724;2023-02-15T13:41:32;13.10;99.90
25302;DHT22;13243;50.888;4.724;2023-02-15T14:18:56;13.80;99.90
25302;DHT22;13243;50.888;4.724;2023-02-15T14:34:57;13.50;99.90
25302;DHT22;13243;50.888;4.724;2023-02-15T14:40:08;13.60;99.90
25302;DHT22;13243;50.888;4.724;2023-02-15T14:45:35;13.60;99.90
25302;DHT22;13243;50.888;4.724;2023-02-15T14:50:48;13.60;99.90
25302;DHT22;13243;50.888;4.724;2023-02-15T15:01:12;13.30;99.90
25302;DHT22;13243;50.888;4.724;2023-02-15T15:06:29;13.10;99.90
25302;DHT22;13243;50.888;4.724;2023-02-15T15:11:49;13.10;99.90
25302;DHT22;13243;50.888;4.724;2023-02-15T15:16:51;13.20;99.90
25302;DHT22;13243;50.888;4.724;2023-02-15T15:21:54;13.10;99.90
25302;DHT22;13243;50.888;4.724;2023-02-15T15:32:36;13.20;99.90
25302;DHT22;13243;50.888;4.724;2023-02-15T15:38:00;13.50;99.90
25302;DHT22;13243;50.888;4.724;2023-02-15T15:48:32;13.80;99.90
25302;DHT22;13243;50.888;4.724;2023-02-15T15:53:43;13.20;99.90
25302;DHT22;13243;50.888;4.724;2023-02-15T15:58:58;13.80;99.90
25302;DHT22;13243;50.888;4.724;2023-02-15T16:04:01;13.00;99.90
25302;DHT22;13243;50.888;4.724;2023-02-15T16:09:21;12.80;99.90
25302;DHT22;13243;50.888;4.724;2023-02-15T16:14:29;12.60;99.90
25302;DHT22;13243;50.888;4.724;2023-02-15T16:19:39;12.60;99.90
25302;DHT22;13243;50.888;4.724;2023-02-15T16:29:46;12.20;99.90
25302;DHT22;13243;50.888;4.724;2023-02-15T16:39:55;11.80;99.90
25302;DHT22;13243;50.888;4.724;2023-02-15T16:45:09;11.70;99.90
25302;DHT22;13243;50.888;4.724;2023-02-15T16:50:24;11.50;99.90
25302;DHT22;13243;50.888;4.724;2023-02-15T16:55:30;11.50;99.90
25302;DHT22;13243;50.888;4.724;2023-02-15T17:00:38;11.30;99.90
25302;DHT22;13243;50.888;4.724;2023-02-15T17:05:53;11.10;99.90
25302;DHT22;13243;50.888;4.724;2023-02-15T17:16:28;11.00;99.90
25302;DHT22;13243;50.888;4.724;2023-02-15T17:21:34;10.70;99.90
25302;DHT22;13243;50.888;4.724;2023-02-15T17:26:39;10.70;99.90
25302;DHT22;13243;50.888;4.724;2023-02-15T17:31:40;10.50;99.90
25302;DHT22;13243;50.888;4.724;2023-02-15T17:36:58;10.40;99.90
25302;DHT22;13243;50.888;4.724;2023-02-15T17:42:04;10.30;99.90
25302;DHT22;13243;50.888;4.724;2023-02-15T17:47:06;10.10;99.90
25302;DHT22;13243;50.888;4.724;2023-02-15T17:52:11;10.00;99.90
25302;DHT22;13243;50.888;4.724;2023-02-15T17:57:15;9.90;99.90
25302;DHT22;13243;50.888;4.724;2023-02-15T18:02:17;9.90;99.90
25302;DHT22;13243;50.888;4.724;2023-02-15T18:07:37;9.90;99.90
25302;DHT22;13243;50.888;4.724;2023-02-15T18:12:58;9.90;99.90
25302;DHT22;13243;50.888;4.724;2023-02-15T18:18:01;9.80;99.90
25302;DHT22;13243;50.888;4.724;2023-02-15T18:23:03;9.80;99.90
25302;DHT22;13243;50.888;4.724;2023-02-15T18:28:05;9.80;99.90
25302;DHT22;13243;50.888;4.724;2023-02-15T18:33:24;9.80;99.90
25302;DHT22;13243;50.888;4.724;2023-02-15T18:38:29;9.80;99.90
25302;DHT22;13243;50.888;4.724;2023-02-15T18:43:31;9.80;99.90
25302;DHT22;13243;50.888;4.724;2023-02-15T18:48:33;9.90;99.90
25302;DHT22;13243;50.888;4.724;2023-02-15T18:53:37;9.90;99.90
25302;DHT22;13243;50.888;4.724;2023-02-15T18:58:39;9.90;99.90
25302;DHT22;13243;50.888;4.724;2023-02-15T19:03:48;9.80;99.90
25302;DHT22;13243;50.888;4.724;2023-02-15T19:08:51;9.80;99.90
25302;DHT22;13243;50.888;4.724;2023-02-15T19:13:53;9.70;99.90
25302;DHT22;13243;50.888;4.724;2023-02-15T19:18:55;9.60;99.90
25302;DHT22;13243;50.888;4.724;2023-02-15T19:24:07;9.60;99.90
25302;DHT22;13243;50.888;4.724;2023-02-15T19:29:13;9.50;99.90
25302;DHT22;13243;50.888;4.724;2023-02-15T19:34:17;9.40;99.90
25302;DHT22;13243;50.888;4.724;2023-02-15T19:39:31;9.40;99.90
25302;DHT22;13243;50.888;4.724;2023-02-15T19:44:37;9.40;99.90
25302;DHT22;13243;50.888;4.724;2023-02-15T19:49:44;9.30;99.90
25302;DHT22;13243;50.888;4.724;2023-02-15T19:54:47;9.20;99.90
25302;DHT22;13243;50.888;4.724;2023-02-15T19:59:49;9.20;99.90
25302;DHT22;13243;50.888;4.724;2023-02-15T20:04:51;9.10;99.90
25302;DHT22;13243;50.888;4.724;2023-02-15T20:09:54;9.00;99.90
25302;DHT22;13243;50.888;4.724;2023-02-15T20:14:57;8.90;99.90
25302;DHT22;13243;50.888;4.724;2023-02-15T20:19:59;8.90;99.90
25302;DHT22;13243;50.888;4.724;2023-02-15T20:25:01;8.80;99.90
25302;DHT22;13243;50.888;4.724;2023-02-15T20:30:12;8.80;99.90
25302;DHT22;13243;50.888;4.724;2023-02-15T20:35:20;8.70;99.90
25302;DHT22;13243;50.888;4.724;2023-02-15T20:40:32;8.70;99.90
25302;DHT22;13243;50.888;4.724;2023-02-15T20:45:33;8.60;99.90
25302;DHT22;13243;50.888;4.724;2023-02-15T20:50:35;8.60;99.90
25302;DHT22;13243;50.888;4.724;2023-02-15T20:55:37;8.50;99.90
25302;DHT22;13243;50.888;4.724;2023-02-15T21:00:39;8.50;99.90
25302;DHT22;13243;50.888;4.724;2023-02-15T21:05:41;8.50;99.90
25302;DHT22;13243;50.888;4.724;2023-02-15T21:10:47;8.40;99.90
25302;DHT22;13243;50.888;4.724;2023-02-15T21:15:50;8.30;99.90
25302;DHT22;13243;50.888;4.724;2023-02-15T21:20:56;8.30;99.90
25302;DHT22;13243;50.888;4.724;2023-02-15T21:25:59;8.10;99.90
25302;DHT22;13243;50.888;4.724;2023-02-15T21:31:01;8.20;99.90
25302;DHT22;13243;50.888;4.724;2023-02-15T21:36:04;8.20;99.90
25302;DHT22;13243;50.888;4.724;2023-02-15T21:41:17;8.10;99.90
25302;DHT22;13243;50.888;4.724;2023-02-15T21:46:37;8.00;99.90
25302;DHT22;13243;50.888;4.724;2023-02-15T21:51:42;8.00;99.90
25302;DHT22;13243;50.888;4.724;2023-02-15T21:57:03;8.00;99.90
25302;DHT22;13243;50.888;4.724;2023-02-15T22:02:25;7.90;99.90
25302;DHT22;13243;50.888;4.724;2023-02-15T22:07:28;7.70;99.90
25302;DHT22;13243;50.888;4.724;2023-02-15T22:12:29;7.70;99.90
25302;DHT22;13243;50.888;4.724;2023-02-15T22:17:31;7.70;99.90
25302;DHT22;13243;50.888;4.724;2023-02-15T22:22:34;7.60;99.90
25302;DHT22;13243;50.888;4.724;2023-02-15T22:27:38;7.40;99.90
25302;DHT22;13243;50.888;4.724;2023-02-15T22:32:41;7.40;99.90
25302;DHT22;13243;50.888;4.724;2023-02-15T22:37:42;7.30;99.90
25302;DHT22;13243;50.888;4.724;2023-02-15T22:42:46;7.40;99.90
25302;DHT22;13243;50.888;4.724;2023-02-15T22:47:51;7.30;99.90
25302;DHT22;13243;50.888;4.724;2023-02-15T22:52:54;7.20;99.90
25302;DHT22;13243;50.888;4.724;2023-02-15T22:57:56;7.10;99.90
25302;DHT22;13243;50.888;4.724;2023-02-15T23:02:58;7.00;99.90
25302;DHT22;13243;50.888;4.724;2023-02-15T23:08:01;6.80;99.90
25302;DHT22;13243;50.888;4.724;2023-02-15T23:18:40;6.80;99.90
25302;DHT22;13243;50.888;4.724;2023-02-15T23:23:44;6.70;99.90
25302;DHT22;13243;50.888;4.724;2023-02-15T23:28:46;6.80;99.90
25302;DHT22;13243;50.888;4.724;2023-02-15T23:33:49;6.70;99.90
25302;DHT22;13243;50.888;4.724;2023-02-15T23:38:51;6.60;99.90
25302;DHT22;13243;50.888;4.724;2023-02-15T23:44:01;6.80;99.90
25302;DHT22;13243;50.888;4.724;2023-02-15T23:49:03;6.80;99.90
25302;DHT22;13243;50.888;4.724;2023-02-15T23:54:17;6.70;99.90
25302;DHT22;13243;50.888;4.724;2023-02-15T23:59:26;6.80;99.90
